Time;durP1;ratioP1;P1;durP2;ratioP2;P2;SDS_P1;SDS_P2;PMS_P1;PMS_P2;Temp;Humidity;BMP_temperature;BMP_pressure;BME280_temperature;BME280_humidity;BME280_pressure;Samples;Min_cycle;Max_cycle;Signal;HPM_P1;HPM_P2
2021/03/08 00:04:09;;;;;;;15.90;12.77;;;0.80;99.90;;;;;;10572145;28;20044;-75
2021/03/08 00:09:11;;;;;;;18.00;12.18;;;0.80;99.90;;;;;;10531239;28;20063;-76
2021/03/08 00:14:14;;;;;;;16.23;10.95;;;0.80;99.90;;;;;;10490573;28;20105;-75
2021/03/08 00:19:17;;;;;;;15.10;11.32;;;0.80;99.90;;;;;;10488391;28;20488;-76
2021/03/08 00:24:20;;;;;;;17.42;11.68;;;0.70;99.90;;;;;;10487503;28;20121;-76
2021/03/08 00:29:23;;;;;;;16.63;11.38;;;0.70;99.90;;;;;;10488091;28;20444;-76
2021/03/08 00:34:25;;;;;;;14.57;11.13;;;0.60;99.90;;;;;;10488586;28;20079;-77
2021/03/08 00:39:28;;;;;;;14.55;10.48;;;0.60;99.90;;;;;;10487915;28;20118;-76
2021/03/08 00:44:30;;;;;;;15.60;11.40;;;0.60;99.90;;;;;;10487145;28;20052;-76
2021/03/08 00:49:33;;;;;;;16.98;11.25;;;0.60;99.90;;;;;;10487534;28;20526;-76
2021/03/08 00:54:36;;;;;;;15.00;10.93;;;0.50;99.90;;;;;;10487289;28;20125;-76
2021/03/08 00:59:38;;;;;;;12.95;10.55;;;0.40;99.90;;;;;;10486864;28;20526;-76
2021/03/08 01:04:41;;;;;;;15.25;11.32;;;0.40;99.90;;;;;;10487016;28;20094;-76
2021/03/08 01:09:44;;;;;;;17.02;11.75;;;0.40;99.90;;;;;;10487898;28;20079;-75
2021/03/08 01:14:47;;;;;;;19.65;12.75;;;0.30;99.90;;;;;;10570269;28;20043;-76
2021/03/08 01:19:49;;;;;;;18.92;12.48;;;0.40;99.90;;;;;;10569766;28;20503;-76
2021/03/08 01:24:52;;;;;;;17.92;12.63;;;0.30;99.90;;;;;;10569910;28;20043;-76
2021/03/08 01:29:55;;;;;;;16.40;11.90;;;0.30;99.90;;;;;;10570074;28;20449;-76
2021/03/08 01:34:57;;;;;;;13.95;11.20;;;0.20;99.90;;;;;;10570202;28;20422;-76
2021/03/08 01:40:01;;;;;;;16.75;11.38;;;0.20;99.90;;;;;;10569559;28;20047;-76
2021/03/08 01:45:05;;;;;;;17.75;11.43;;;0.20;99.90;;;;;;10569644;28;20051;-75
2021/03/08 01:50:13;;;;;;;15.82;11.05;;;0.20;99.90;;;;;;10575663;28;20116;-76
2021/03/08 01:55:17;;;;;;;14.75;11.27;;;0.20;99.90;;;;;;10578347;28;20052;-76
2021/03/08 02:00:24;;;;;;;15.82;11.60;;;0.20;99.90;;;;;;10577655;28;20047;-76
2021/03/08 02:05:39;;;;;;;14.75;11.05;;;0.20;99.90;;;;;;10576684;28;20051;-76
2021/03/08 02:10:44;;;;;;;15.52;11.82;;;0.10;99.90;;;;;;10577743;28;20469;-76
2021/03/08 02:16:15;;;;;;;16.10;11.48;;;0.10;99.90;;;;;;10576634;28;20097;-76
2021/03/08 02:21:27;;;;;;;15.00;11.43;;;0.10;99.90;;;;;;10577248;28;20043;-76
2021/03/08 02:26:45;;;;;;;14.40;10.57;;;0.10;99.90;;;;;;10577606;28;20077;-75
2021/03/08 02:31:50;;;;;;;17.92;11.55;;;0.10;99.90;;;;;;10576995;28;20063;-76
2021/03/08 02:37:07;;;;;;;14.45;11.23;;;0.20;99.90;;;;;;10576450;28;20467;-76
2021/03/08 02:42:16;;;;;;;15.55;11.35;;;0.10;99.90;;;;;;10575733;28;20462;-76
2021/03/08 02:47:22;;;;;;;16.10;10.98;;;-0.20;99.90;;;;;;10575804;28;20083;-75
2021/03/08 02:52:30;;;;;;;17.92;11.38;;;-0.40;99.90;;;;;;10576250;28;20040;-76
2021/03/08 02:57:38;;;;;;;15.70;11.45;;;-0.30;99.90;;;;;;10575837;28;20044;-75
2021/03/08 03:02:41;;;;;;;14.52;11.20;;;0.00;99.90;;;;;;10578561;28;20044;-75
2021/03/08 03:07:47;;;;;;;18.08;11.70;;;0.10;99.90;;;;;;10583786;28;20052;-75
2021/03/08 03:12:51;;;;;;;13.90;11.25;;;0.30;99.90;;;;;;10583095;28;20447;-76
2021/03/08 03:17:56;;;;;;;17.83;12.10;;;0.60;99.90;;;;;;10583225;28;20052;-76
2021/03/08 03:23:01;;;;;;;16.48;12.85;;;0.80;99.90;;;;;;10582918;28;20075;-76
2021/03/08 03:28:04;;;;;;;14.27;11.65;;;0.90;99.90;;;;;;10582411;28;20088;-76
2021/03/08 03:33:07;;;;;;;18.20;13.23;;;1.00;99.90;;;;;;10582522;28;20047;-76
2021/03/08 03:38:12;;;;;;;15.65;12.00;;;1.00;99.90;;;;;;10582840;28;20046;-76
2021/03/08 03:43:15;;;;;;;15.82;11.48;;;0.90;99.90;;;;;;10582180;28;20051;-76
2021/03/08 03:48:17;;;;;;;15.30;10.88;;;0.90;99.90;;;;;;10581841;28;20047;-76
2021/03/08 03:53:20;;;;;;;14.98;11.40;;;0.80;99.90;;;;;;10582095;28;20089;-77
2021/03/08 03:58:55;;;;;;;13.10;10.63;;;0.80;99.90;;;;;;10581281;28;20039;-76
2021/03/08 04:04:01;;;;;;;14.90;11.30;;;0.80;99.90;;;;;;10577660;28;20101;-76
2021/03/08 04:09:05;;;;;;;14.88;11.35;;;0.90;99.90;;;;;;10576188;28;20055;-76
2021/03/08 04:14:09;;;;;;;16.95;11.07;;;0.90;99.90;;;;;;10571874;28;20553;-76
2021/03/08 04:19:14;;;;;;;19.08;12.45;;;0.80;99.90;;;;;;10573214;28;20054;-76
2021/03/08 04:24:20;;;;;;;14.77;11.23;;;0.60;99.90;;;;;;10573056;28;20540;-76
2021/03/08 04:29:23;;;;;;;16.38;11.15;;;0.40;99.90;;;;;;10573234;28;20079;-76
2021/03/08 04:34:35;;;;;;;14.88;11.63;;;0.30;99.90;;;;;;10572547;28;20408;-76
2021/03/08 04:39:38;;;;;;;16.75;12.40;;;0.30;99.90;;;;;;10572108;28;20494;-75
2021/03/08 04:44:43;;;;;;;14.80;11.82;;;0.20;99.90;;;;;;10571471;28;20128;-76
2021/03/08 04:49:46;;;;;;;17.60;12.13;;;0.20;99.90;;;;;;10572017;28;20052;-76
2021/03/08 04:54:50;;;;;;;18.40;13.10;;;0.10;99.90;;;;;;10572006;28;20066;-76
2021/03/08 04:59:53;;;;;;;17.25;12.73;;;0.10;99.90;;;;;;10571703;28;20071;-76
2021/03/08 05:05:12;;;;;;;15.50;12.15;;;0.10;99.90;;;;;;10571845;28;20112;-75
2021/03/08 05:10:18;;;;;;;18.55;14.15;;;0.10;99.90;;;;;;10570661;28;20388;-75
2021/03/08 05:15:24;;;;;;;17.60;13.65;;;0.10;99.90;;;;;;10571618;28;20044;-76
2021/03/08 05:20:27;;;;;;;15.93;12.35;;;0.10;99.90;;;;;;10570792;28;20071;-76
2021/03/08 05:25:32;;;;;;;18.98;13.35;;;0.20;99.90;;;;;;10570227;28;20526;-76
2021/03/08 05:30:35;;;;;;;18.80;14.98;;;0.20;99.90;;;;;;10570506;28;20055;-75
2021/03/08 05:35:55;;;;;;;20.02;14.68;;;0.30;99.90;;;;;;10570920;28;20090;-75
2021/03/08 05:41:34;;;;;;;22.08;14.52;;;0.40;99.90;;;;;;10571052;28;20066;-76
2021/03/08 05:46:37;;;;;;;20.60;16.00;;;0.50;99.90;;;;;;10570281;28;20511;-76
2021/03/08 05:51:52;;;;;;;19.90;14.90;;;0.40;99.90;;;;;;10570275;28;20043;-76
2021/03/08 05:57:18;;;;;;;19.50;15.40;;;0.40;99.90;;;;;;10570728;28;20491;-76
2021/03/08 06:02:59;;;;;;;24.83;16.95;;;0.50;99.90;;;;;;10562981;28;20090;-75
2021/03/08 06:08:20;;;;;;;20.35;15.90;;;0.60;99.90;;;;;;10559847;28;20043;-76
2021/03/08 06:13:25;;;;;;;23.02;15.93;;;0.70;99.90;;;;;;10570263;28;20708;-77
2021/03/08 06:18:33;;;;;;;20.20;16.48;;;0.80;99.90;;;;;;10570765;28;20056;-76
2021/03/08 06:23:38;;;;;;;22.60;16.45;;;0.70;99.90;;;;;;10570231;28;20051;-76
2021/03/08 06:28:41;;;;;;;19.90;16.65;;;0.80;99.90;;;;;;10569564;28;20047;-75
2021/03/08 06:33:44;;;;;;;21.42;16.25;;;0.90;99.90;;;;;;10571518;28;20079;-75
2021/03/08 06:38:47;;;;;;;17.85;14.93;;;1.10;99.90;;;;;;10577654;28;20043;-76
2021/03/08 06:43:50;;;;;;;19.75;15.43;;;1.40;99.90;;;;;;10577979;28;20085;-76
2021/03/08 06:48:52;;;;;;;19.33;15.75;;;1.60;99.90;;;;;;10577595;28;20063;-77
2021/03/08 06:53:55;;;;;;;20.10;16.13;;;1.80;99.90;;;;;;10576551;28;20502;-76
2021/03/08 06:59:10;;;;;;;20.75;15.95;;;2.00;99.90;;;;;;10576703;28;20487;-75
2021/03/08 07:04:14;;;;;;;20.35;16.33;;;2.10;99.90;;;;;;10575677;28;20055;-76
2021/03/08 07:09:17;;;;;;;21.00;16.33;;;2.30;99.90;;;;;;10576223;28;20047;-76
2021/03/08 07:14:23;;;;;;;21.02;16.77;;;2.50;99.90;;;;;;10575857;28;20048;-76
2021/03/08 07:19:25;;;;;;;20.30;16.92;;;2.60;99.90;;;;;;10575734;28;20096;-76
2021/03/08 07:24:28;;;;;;;23.88;17.92;;;2.60;99.90;;;;;;10575938;28;20450;-76
2021/03/08 07:29:31;;;;;;;21.58;16.65;;;2.80;99.90;;;;;;10575991;28;20036;-75
2021/03/08 07:34:45;;;;;;;21.48;17.02;;;3.00;99.90;;;;;;10575265;28;20055;-75
2021/03/08 07:39:55;;;;;;;21.55;17.20;;;3.10;99.90;;;;;;10575116;28;20052;-76
2021/03/08 07:44:58;;;;;;;24.40;16.50;;;3.30;99.90;;;;;;10574655;28;20047;-75
2021/03/08 07:50:01;;;;;;;22.85;16.00;;;3.50;99.90;;;;;;10573244;28;20073;-75
2021/03/08 07:55:04;;;;;;;22.17;17.88;;;3.80;99.90;;;;;;10574711;28;20459;-76
2021/03/08 08:00:07;;;;;;;24.33;17.55;;;3.80;99.90;;;;;;10555935;28;20048;-76
2021/03/08 08:05:10;;;;;;;24.83;17.33;;;3.90;99.90;;;;;;10575802;27;20136;-67
2021/03/08 08:10:17;;;;;;;23.40;18.08;;;3.90;99.90;;;;;;10571897;28;20051;-67
2021/03/08 08:15:23;;;;;;;24.27;18.40;;;4.00;99.90;;;;;;10573811;28;20088;-67
2021/03/08 08:20:29;;;;;;;23.17;17.98;;;4.10;99.90;;;;;;10572697;28;20044;-68
2021/03/08 08:25:32;;;;;;;26.90;18.48;;;4.20;99.90;;;;;;10571419;28;20101;-67
2021/03/08 08:30:36;;;;;;;23.75;18.20;;;4.30;99.90;;;;;;10564357;28;20043;-67
2021/03/08 08:35:40;;;;;;;26.48;18.17;;;4.30;99.90;;;;;;10569181;28;20050;-67
2021/03/08 08:40:44;;;;;;;26.05;18.90;;;4.40;99.90;;;;;;10570166;28;20437;-67
2021/03/08 08:45:49;;;;;;;24.80;18.77;;;4.70;99.90;;;;;;10569867;28;20047;-67
2021/03/08 08:50:53;;;;;;;24.73;18.27;;;4.80;99.90;;;;;;10568762;28;20048;-67
2021/03/08 08:55:56;;;;;;;27.02;19.65;;;4.80;99.90;;;;;;10569774;28;20480;-67
2021/03/08 09:01:13;;;;;;;26.20;18.75;;;5.10;99.90;;;;;;10568439;28;20471;-67
2021/03/08 09:06:54;;;;;;;27.55;19.40;;;5.20;99.90;;;;;;10566623;28;20048;-67
2021/03/08 09:12:02;;;;;;;26.00;19.73;;;5.30;99.90;;;;;;10570505;28;20054;-67
2021/03/08 09:17:15;;;;;;;24.92;19.35;;;5.60;99.90;;;;;;10569491;28;20039;-67
2021/03/08 09:22:24;;;;;;;29.33;20.48;;;5.70;99.90;;;;;;10570831;28;20051;-67
2021/03/08 09:27:29;;;;;;;28.35;20.38;;;5.80;99.90;;;;;;10570742;28;20051;-67
2021/03/08 09:32:33;;;;;;;30.98;21.60;;;5.90;99.90;;;;;;10570045;28;20051;-67
2021/03/08 09:37:37;;;;;;;30.88;20.67;;;6.00;99.90;;;;;;10570505;28;20055;-67
2021/03/08 09:42:40;;;;;;;27.52;21.98;;;6.00;99.90;;;;;;10570065;28;20043;-67
2021/03/08 09:47:43;;;;;;;33.65;22.83;;;6.20;99.90;;;;;;10570128;28;20047;-67
2021/03/08 09:53:06;;;;;;;30.00;21.65;;;6.50;99.90;;;;;;10570751;28;20047;-67
2021/03/08 09:58:15;;;;;;;28.00;21.60;;;6.80;99.90;;;;;;10570042;28;20052;-67
2021/03/08 10:03:18;;;;;;;31.83;22.13;;;6.80;99.90;;;;;;10570403;28;20047;-67
2021/03/08 10:08:29;;;;;;;29.67;21.27;;;7.00;99.90;;;;;;10571246;28;20480;-67
2021/03/08 10:13:34;;;;;;;30.42;21.33;;;7.20;99.70;;;;;;10504083;28;20114;-67
2021/03/08 10:18:37;;;;;;;38.05;22.42;;;7.30;99.20;;;;;;10492176;28;20044;-67
2021/03/08 10:23:40;;;;;;;30.58;20.98;;;7.40;98.70;;;;;;10493644;28;20048;-67
2021/03/08 10:28:53;;;;;;;28.45;21.50;;;7.50;97.80;;;;;;10493897;28;20078;-67
2021/03/08 10:34:03;;;;;;;31.17;22.58;;;7.70;96.60;;;;;;10493591;28;20086;-67
2021/03/08 10:39:12;;;;;;;31.33;22.35;;;7.90;96.90;;;;;;10493552;28;20488;-67
2021/03/08 10:44:20;;;;;;;29.48;22.40;;;8.10;95.50;;;;;;10493208;28;20049;-67
2021/03/08 10:49:24;;;;;;;33.38;23.33;;;8.10;95.30;;;;;;10493131;28;20140;-67
2021/03/08 10:54:38;;;;;;;30.98;22.25;;;8.10;95.50;;;;;;10493455;28;20080;-67
2021/03/08 10:59:52;;;;;;;33.83;22.67;;;8.10;94.80;;;;;;10492890;28;20053;-67
2021/03/08 11:05:14;;;;;;;33.10;22.67;;;8.50;94.20;;;;;;10492399;28;20461;-67
2021/03/08 11:10:16;;;;;;;31.05;22.30;;;8.60;93.20;;;;;;10499375;28;20113;-67
2021/03/08 11:15:22;;;;;;;33.70;22.85;;;8.70;92.90;;;;;;10577379;28;20039;-67
2021/03/08 11:20:28;;;;;;;33.38;22.70;;;8.70;92.90;;;;;;10574715;28;20051;-67
2021/03/08 11:25:44;;;;;;;33.63;23.77;;;8.70;92.00;;;;;;10576459;28;20051;-67
2021/03/08 11:30:50;;;;;;;35.25;23.30;;;8.80;91.90;;;;;;10575972;28;20047;-67
2021/03/08 11:35:53;;;;;;;40.55;23.90;;;9.00;91.60;;;;;;10575682;28;20044;-67
2021/03/08 11:40:56;;;;;;;31.55;21.88;;;9.20;90.80;;;;;;10575629;28;20426;-67
2021/03/08 11:45:59;;;;;;;30.02;22.63;;;9.30;90.50;;;;;;10574929;28;20051;-67
2021/03/08 11:51:02;;;;;;;31.80;22.77;;;9.60;89.20;;;;;;10575262;28;20048;-67
2021/03/08 11:56:06;;;;;;;31.42;22.95;;;9.40;89.60;;;;;;10557000;28;20055;-67
2021/03/08 12:01:08;;;;;;;51.60;23.65;;;9.80;87.60;;;;;;10574701;28;20044;-67
2021/03/08 12:06:11;;;;;;;33.58;22.90;;;9.80;85.70;;;;;;10574376;28;20044;-67
2021/03/08 12:11:15;;;;;;;70.68;24.17;;;9.50;84.50;;;;;;10574184;28;20559;-67
2021/03/08 12:16:18;;;;;;;37.05;23.08;;;9.60;85.50;;;;;;10574150;28;20430;-67
2021/03/08 12:21:21;;;;;;;30.90;21.77;;;9.90;84.20;;;;;;10573633;28;20054;-67
2021/03/08 12:26:25;;;;;;;32.97;22.23;;;9.50;84.50;;;;;;10573773;28;20063;-67
2021/03/08 12:31:27;;;;;;;32.65;22.05;;;9.50;85.40;;;;;;10555549;28;20050;-67
2021/03/08 12:36:31;;;;;;;30.92;21.88;;;9.60;84.60;;;;;;10573168;28;20075;-67
2021/03/08 12:41:34;;;;;;;34.40;23.83;;;9.50;85.20;;;;;;10572437;28;20552;-67
2021/03/08 12:46:36;;;;;;;44.45;23.65;;;9.80;83.10;;;;;;10572392;28;20052;-67
2021/03/08 12:51:40;;;;;;;32.50;23.17;;;9.80;83.20;;;;;;10572767;28;20104;-67
2021/03/08 12:56:42;;;;;;;31.83;22.85;;;9.80;83.70;;;;;;10572665;28;20064;-67
2021/03/08 13:01:45;;;;;;;33.95;23.75;;;9.80;82.60;;;;;;10572297;28;20101;-67
2021/03/08 13:06:48;;;;;;;27.40;21.80;;;9.90;82.10;;;;;;10572424;28;20051;-67
2021/03/08 13:11:51;;;;;;;31.85;21.80;;;9.80;83.00;;;;;;10571117;28;20047;-67
2021/03/08 13:16:53;;;;;;;30.10;21.20;;;9.90;82.40;;;;;;10571392;28;20073;-67
2021/03/08 13:21:56;;;;;;;29.67;20.65;;;10.00;82.20;;;;;;10572400;28;20081;-67
2021/03/08 13:27:06;;;;;;;27.58;19.55;;;9.90;81.20;;;;;;10572116;28;20097;-67
2021/03/08 13:32:09;;;;;;;30.05;19.55;;;9.80;82.20;;;;;;10570228;28;20455;-67
2021/03/08 13:37:12;;;;;;;27.80;19.30;;;10.10;80.70;;;;;;10571300;28;20305;-67
2021/03/08 13:42:15;;;;;;;26.48;17.67;;;10.00;79.50;;;;;;10571364;28;20035;-67
2021/03/08 13:47:18;;;;;;;25.42;17.35;;;10.00;77.90;;;;;;10570145;28;20527;-67
2021/03/08 13:52:21;;;;;;;24.38;16.52;;;10.00;79.00;;;;;;10569859;28;20126;-67
2021/03/08 13:57:24;;;;;;;23.38;16.80;;;10.00;80.10;;;;;;10571058;28;20549;-67
2021/03/08 14:02:26;;;;;;;24.40;17.50;;;10.00;79.20;;;;;;10570231;28;20044;-67
2021/03/08 14:07:29;;;;;;;31.60;17.95;;;10.00;78.40;;;;;;10571038;28;20492;-67
2021/03/08 14:12:32;;;;;;;26.25;18.08;;;10.20;79.10;;;;;;10570397;28;20568;-67
2021/03/08 14:17:36;;;;;;;27.13;18.73;;;10.10;79.10;;;;;;10570506;28;20064;-67
2021/03/08 14:22:39;;;;;;;29.40;17.98;;;9.80;80.90;;;;;;10570358;28;20164;-67
2021/03/08 14:27:42;;;;;;;29.55;17.33;;;9.90;82.20;;;;;;10570166;28;20079;-67
2021/03/08 14:32:45;;;;;;;29.98;18.55;;;10.00;81.70;;;;;;10569772;28;20051;-67
2021/03/08 14:38:03;;;;;;;25.88;17.95;;;10.10;81.80;;;;;;10570118;28;20236;-67
2021/03/08 14:43:06;;;;;;;27.80;18.98;;;10.20;81.40;;;;;;10551773;28;20108;-67
2021/03/08 14:48:09;;;;;;;29.67;20.08;;;10.30;81.80;;;;;;10569819;28;20051;-67
2021/03/08 14:53:12;;;;;;;29.55;18.77;;;10.20;81.10;;;;;;10569723;28;20240;-67
2021/03/08 14:58:15;;;;;;;30.23;19.60;;;10.00;82.30;;;;;;10575912;28;20510;-67
2021/03/08 15:03:18;;;;;;;31.52;20.70;;;10.00;81.80;;;;;;10576922;28;20522;-67
2021/03/08 15:08:21;;;;;;;31.23;20.30;;;9.90;83.60;;;;;;10576791;28;20043;-67
2021/03/08 15:13:23;;;;;;;32.65;21.15;;;9.90;83.30;;;;;;10576061;28;20059;-67
2021/03/08 15:18:26;;;;;;;38.22;24.48;;;9.90;83.60;;;;;;10575832;28;20536;-67
2021/03/08 15:23:29;;;;;;;36.45;22.92;;;9.80;84.40;;;;;;10576383;28;20127;-67
2021/03/08 15:28:32;;;;;;;38.92;24.02;;;9.70;85.60;;;;;;10574811;28;20048;-67
2021/03/08 15:33:34;;;;;;;33.88;21.98;;;9.50;86.20;;;;;;10575390;28;20407;-67
2021/03/08 15:38:38;;;;;;;37.65;23.45;;;9.70;86.30;;;;;;10575859;28;20143;-67
2021/03/08 15:43:42;;;;;;;37.70;22.38;;;9.70;86.00;;;;;;10574590;28;20055;-67
2021/03/08 15:48:45;;;;;;;32.17;21.02;;;9.80;85.50;;;;;;10574848;28;20055;-67
2021/03/08 15:53:48;;;;;;;35.15;22.60;;;9.80;84.80;;;;;;10575486;28;20105;-67
2021/03/08 15:58:51;;;;;;;37.92;25.38;;;9.70;84.90;;;;;;10574395;28;20048;-68
2021/03/08 16:03:53;;;;;;;35.38;21.05;;;9.60;86.20;;;;;;10574656;28;20044;-67
2021/03/08 16:08:56;;;;;;;41.15;25.88;;;9.40;87.80;;;;;;10574224;28;20087;-67
2021/03/08 16:14:04;;;;;;;39.58;25.08;;;9.30;88.30;;;;;;10573742;28;20109;-67
2021/03/08 16:19:07;;;;;;;37.28;23.38;;;8.90;90.30;;;;;;10573773;28;20054;-67
2021/03/08 16:24:11;;;;;;;39.88;23.15;;;8.70;91.70;;;;;;10573463;28;20044;-67
2021/03/08 16:29:13;;;;;;;39.05;24.23;;;8.50;92.20;;;;;;10573473;28;20078;-67
2021/03/08 16:34:18;;;;;;;41.67;23.67;;;8.50;93.60;;;;;;10573394;28;20044;-67
2021/03/08 16:39:20;;;;;;;42.88;24.92;;;8.30;94.50;;;;;;10572911;28;20054;-67
2021/03/08 16:44:29;;;;;;;43.47;24.52;;;8.10;95.40;;;;;;10573107;28;20051;-67
2021/03/08 16:49:32;;;;;;;38.63;24.55;;;8.00;96.60;;;;;;10572780;28;20083;-67
2021/03/08 16:54:35;;;;;;;44.83;25.90;;;7.90;97.70;;;;;;10572109;28;20516;-67
2021/03/08 16:59:39;;;;;;;42.63;25.35;;;7.80;98.30;;;;;;10572389;28;20058;-67
2021/03/08 17:04:41;;;;;;;42.10;25.10;;;7.70;99.00;;;;;;10572258;28;20071;-67
2021/03/08 17:09:44;;;;;;;42.58;25.50;;;7.60;99.90;;;;;;10571613;28;20495;-67
2021/03/08 17:14:51;;;;;;;44.88;25.50;;;7.40;99.90;;;;;;10571093;28;20424;-67
2021/03/08 17:19:54;;;;;;;48.25;29.75;;;7.30;99.90;;;;;;10570924;28;20602;-67
2021/03/08 17:24:56;;;;;;;57.08;32.95;;;7.10;99.90;;;;;;10571796;28;20212;-67
2021/03/08 17:29:59;;;;;;;54.53;30.00;;;7.00;99.90;;;;;;10571576;28;20055;-67
2021/03/08 17:35:05;;;;;;;45.70;26.83;;;6.80;99.90;;;;;;10570856;28;20067;-67
2021/03/08 17:40:09;;;;;;;39.30;25.05;;;6.70;99.90;;;;;;10570925;27;20086;-67
2021/03/08 17:45:18;;;;;;;42.00;26.77;;;6.50;99.90;;;;;;10570888;28;20093;-67
2021/03/08 17:50:21;;;;;;;44.72;28.63;;;6.40;99.90;;;;;;10592313;28;20125;-67
2021/03/08 17:55:24;;;;;;;41.80;27.42;;;6.30;99.90;;;;;;10608310;28;20090;-67
2021/03/08 18:00:27;;;;;;;45.20;26.75;;;6.30;99.90;;;;;;10612620;28;20051;-67
2021/03/08 18:05:29;;;;;;;42.00;25.98;;;6.30;99.90;;;;;;10594902;28;20047;-67
2021/03/08 18:10:32;;;;;;;44.38;27.40;;;6.30;99.90;;;;;;10612762;28;20399;-67
2021/03/08 18:15:41;;;;;;;47.72;27.52;;;6.40;99.90;;;;;;10610491;28;20043;-67
2021/03/08 18:20:44;;;;;;;41.85;26.90;;;6.30;99.90;;;;;;10596291;28;20053;-67
2021/03/08 18:25:46;;;;;;;48.22;29.50;;;6.20;99.90;;;;;;10578625;28;20058;-67
2021/03/08 18:30:49;;;;;;;50.33;30.67;;;6.10;99.90;;;;;;10573421;28;20086;-67
2021/03/08 18:35:52;;;;;;;51.22;30.38;;;6.00;99.90;;;;;;10580080;27;20052;-67
2021/03/08 18:40:54;;;;;;;45.15;28.25;;;5.90;99.90;;;;;;10578530;28;20050;-67
2021/03/08 18:46:01;;;;;;;44.30;28.00;;;5.90;99.90;;;;;;10577590;28;20055;-67
2021/03/08 18:51:04;;;;;;;53.28;30.95;;;5.80;99.90;;;;;;10577113;28;20055;-67
2021/03/08 18:56:07;;;;;;;68.35;41.65;;;5.70;99.90;;;;;;10577634;28;20065;-67
2021/03/08 19:01:10;;;;;;;67.05;40.90;;;5.60;99.90;;;;;;10559300;28;20043;-67
2021/03/08 19:06:14;;;;;;;53.92;34.75;;;5.50;99.90;;;;;;10577371;28;20048;-67
2021/03/08 19:11:17;;;;;;;55.95;33.72;;;5.40;99.90;;;;;;10576540;28;20063;-67
2021/03/08 19:16:25;;;;;;;65.93;38.58;;;5.30;99.90;;;;;;10576900;28;20051;-67
2021/03/08 19:21:30;;;;;;;67.75;39.38;;;5.40;99.90;;;;;;10575695;28;20039;-67
2021/03/08 19:26:32;;;;;;;52.90;32.72;;;5.30;99.90;;;;;;10575859;28;20055;-67
2021/03/08 19:31:35;;;;;;;56.83;33.40;;;5.30;99.90;;;;;;10576298;28;20044;-67
2021/03/08 19:36:38;;;;;;;60.40;34.85;;;5.20;99.90;;;;;;10575501;28;20142;-67
2021/03/08 19:41:40;;;;;;;50.65;31.77;;;5.10;99.90;;;;;;10575223;28;20048;-67
2021/03/08 19:47:15;;;;;;;57.45;34.08;;;4.90;99.90;;;;;;10575145;28;20078;-67
2021/03/08 19:52:18;;;;;;;54.27;34.43;;;4.80;99.90;;;;;;10575080;28;20048;-67
2021/03/08 19:57:21;;;;;;;49.70;30.52;;;4.80;99.90;;;;;;10574901;28;20047;-67
2021/03/08 20:02:23;;;;;;;53.13;29.65;;;4.70;99.90;;;;;;10555768;28;20044;-67
2021/03/08 20:07:26;;;;;;;51.13;30.40;;;4.60;99.90;;;;;;10556482;28;20480;-67
2021/03/08 20:12:34;;;;;;;49.53;30.38;;;4.50;99.90;;;;;;10574113;28;20105;-66
2021/03/08 20:17:42;;;;;;;50.00;30.27;;;4.50;99.90;;;;;;10574062;28;20124;-66
2021/03/08 20:22:45;;;;;;;58.13;33.35;;;4.50;99.90;;;;;;10573904;28;20406;-66
2021/03/08 20:27:47;;;;;;;51.22;30.55;;;4.50;99.90;;;;;;10573561;28;20406;-66
2021/03/08 20:32:50;;;;;;;59.10;32.00;;;4.50;99.90;;;;;;10573483;28;20213;-66
2021/03/08 20:37:53;;;;;;;51.33;30.80;;;4.50;99.90;;;;;;10573734;28;20043;-66
2021/03/08 20:42:56;;;;;;;55.97;31.02;;;4.40;99.90;;;;;;10573389;28;20048;-66
2021/03/08 20:47:59;;;;;;;52.15;31.05;;;4.40;99.90;;;;;;10572826;28;20094;-66
2021/03/08 20:53:02;;;;;;;55.08;32.30;;;4.40;99.90;;;;;;10572610;28;20852;-66
2021/03/08 20:58:05;;;;;;;50.30;30.85;;;4.40;99.90;;;;;;10572951;28;20089;-66
2021/03/08 21:03:07;;;;;;;54.75;32.05;;;4.30;99.90;;;;;;10571711;28;20056;-66
2021/03/08 21:08:11;;;;;;;52.55;30.52;;;4.30;99.90;;;;;;10572174;28;20072;-66
2021/03/08 21:13:14;;;;;;;53.35;32.08;;;4.30;99.90;;;;;;10571523;28;20068;-66
2021/03/08 21:18:17;;;;;;;56.38;32.60;;;4.30;99.90;;;;;;10571835;28;20050;-66
2021/03/08 21:23:20;;;;;;;53.30;31.13;;;4.20;99.90;;;;;;10553978;28;20051;-66
2021/03/08 21:28:22;;;;;;;51.97;30.27;;;4.20;99.90;;;;;;10572198;28;20441;-66
2021/03/08 21:33:25;;;;;;;56.55;32.13;;;4.20;99.90;;;;;;10572482;28;20043;-66
2021/03/08 21:38:28;;;;;;;52.83;31.50;;;4.20;99.90;;;;;;10570381;28;20040;-66
2021/03/08 21:43:31;;;;;;;52.97;31.33;;;4.10;99.90;;;;;;10571247;28;20055;-66
2021/03/08 21:48:33;;;;;;;54.63;31.98;;;4.10;99.90;;;;;;10580626;28;20055;-66
2021/03/08 21:53:37;;;;;;;57.45;31.92;;;4.00;99.90;;;;;;10577535;28;20082;-66
2021/03/08 21:58:41;;;;;;;59.88;33.22;;;3.90;99.90;;;;;;10569645;28;20134;-66
2021/03/08 22:03:44;;;;;;;57.40;33.42;;;3.80;99.90;;;;;;10569933;28;20079;-66
2021/03/08 22:08:46;;;;;;;56.88;33.33;;;3.80;99.90;;;;;;10578533;28;20051;-69
2021/03/08 22:13:50;;;;;;;58.22;33.45;;;3.80;99.90;;;;;;10578733;28;20052;-66
2021/03/08 22:18:52;;;;;;;58.45;33.85;;;3.80;99.90;;;;;;10575985;28;20553;-70
2021/03/08 22:23:55;;;;;;;55.38;30.92;;;3.90;99.90;;;;;;10576365;28;20089;-70
2021/03/08 22:28:57;;;;;;;57.25;32.40;;;3.90;99.90;;;;;;10575246;28;20083;-71
2021/03/08 22:34:00;;;;;;;57.15;33.75;;;3.80;99.90;;;;;;10578670;28;20067;-70
2021/03/08 22:39:04;;;;;;;58.33;34.30;;;3.70;99.90;;;;;;10577972;28;20083;-70
2021/03/08 22:44:07;;;;;;;58.83;33.25;;;3.70;99.90;;;;;;10584317;28;20399;-70
2021/03/08 22:49:09;;;;;;;65.18;35.63;;;3.70;99.90;;;;;;10578226;28;20494;-71
2021/03/08 22:54:13;;;;;;;63.78;37.03;;;3.60;99.90;;;;;;10576954;28;20058;-70
2021/03/08 22:59:16;;;;;;;60.33;35.35;;;3.60;99.90;;;;;;10578820;28;20120;-71
2021/03/08 23:04:18;;;;;;;58.65;35.08;;;3.70;99.90;;;;;;10576460;28;20162;-70
2021/03/08 23:09:21;;;;;;;59.42;34.05;;;3.70;99.90;;;;;;10559305;28;20055;-70
2021/03/08 23:14:24;;;;;;;64.35;35.33;;;3.60;99.90;;;;;;10569685;28;20060;-70
2021/03/08 23:19:27;;;;;;;56.67;33.05;;;3.70;99.90;;;;;;10572709;28;20044;-70
2021/03/08 23:24:30;;;;;;;61.72;35.80;;;3.70;99.90;;;;;;10571470;28;20055;-71
2021/03/08 23:29:32;;;;;;;60.60;33.72;;;3.60;99.90;;;;;;10572917;28;20108;-70
2021/03/08 23:34:36;;;;;;;59.65;33.20;;;3.60;99.90;;;;;;10575030;28;20066;-70
2021/03/08 23:39:38;;;;;;;56.90;34.50;;;3.60;99.90;;;;;;10572089;28;20487;-70
2021/03/08 23:44:42;;;;;;;63.33;34.65;;;3.60;99.90;;;;;;10574099;28;20055;-70
2021/03/08 23:49:45;;;;;;;61.72;35.40;;;3.60;99.90;;;;;;10573945;28;20056;-70
2021/03/08 23:54:48;;;;;;;63.85;35.35;;;3.50;99.90;;;;;;10573416;28;20450;-70
2021/03/08 23:59:51;;;;;;;60.97;35.55;;;3.40;99.90;;;;;;10573512;28;20047;-70
